Time;durP1;ratioP1;P1;durP2;ratioP2;P2;SDS_P1;SDS_P2;PMS_P1;PMS_P2;Temp;Humidity;BMP_temperature;BMP_pressure;BME280_temperature;BME280_humidity;BME280_pressure;Samples;Min_cycle;Max_cycle;Signal;HPM_P1;HPM_P2
2024/03/21 00:03:48;;;;;;;44.85;21.08;;;2.80;99.90;;;;;;20906953;28;20036;-40
2024/03/21 00:13:50;;;;;;;40.67;21.42;;;2.80;99.90;;;;;;20905328;28;20106;-39
2024/03/21 00:23:52;;;;;;;43.63;22.35;;;2.90;99.90;;;;;;20906101;28;20032;-39
2024/03/21 00:33:54;;;;;;;42.38;20.42;;;3.10;99.90;;;;;;20905436;28;20053;-39
2024/03/21 00:43:56;;;;;;;40.28;21.77;;;3.20;99.90;;;;;;20904562;28;20396;-39
2024/03/21 00:53:58;;;;;;;44.10;20.95;;;3.00;99.90;;;;;;20903891;28;20063;-39
2024/03/21 01:04:01;;;;;;;40.10;20.10;;;3.20;99.90;;;;;;20904317;28;20033;-39
2024/03/21 01:14:03;;;;;;;29.85;16.00;;;3.30;99.90;;;;;;20903722;28;20392;-39
2024/03/21 01:24:06;;;;;;;28.65;14.88;;;3.20;99.90;;;;;;20906998;28;20040;-42
2024/03/21 01:34:08;;;;;;;26.92;14.45;;;3.20;99.90;;;;;;20886867;28;20108;-39
2024/03/21 01:44:17;;;;;;;31.60;16.13;;;3.20;99.90;;;;;;20835170;28;20080;-39
2024/03/21 01:54:19;;;;;;;29.80;16.77;;;3.10;99.90;;;;;;20802840;28;20033;-39
2024/03/21 02:04:21;;;;;;;26.25;14.15;;;3.30;99.90;;;;;;20833718;28;20041;-39
2024/03/21 02:14:27;;;;;;;25.05;12.95;;;3.50;99.90;;;;;;20796864;28;20096;-39
2024/03/21 02:24:28;;;;;;;17.15;10.05;;;3.50;99.90;;;;;;20806828;28;20063;-39
2024/03/21 02:34:31;;;;;;;24.95;12.38;;;3.30;99.90;;;;;;20847355;28;20122;-39
2024/03/21 02:44:32;;;;;;;16.67;8.32;;;3.30;99.90;;;;;;20913272;28;20078;-39
2024/03/21 02:54:35;;;;;;;25.55;13.48;;;3.20;99.90;;;;;;20850538;28;20037;-40
2024/03/21 03:04:37;;;;;;;22.42;11.52;;;3.10;99.90;;;;;;20738209;28;20050;-42
2024/03/21 03:14:38;;;;;;;17.30;9.07;;;3.10;99.90;;;;;;20737800;28;20046;-39
2024/03/21 03:24:40;;;;;;;21.80;11.00;;;3.00;99.90;;;;;;20736310;28;20446;-39
2024/03/21 03:45:02;;;;;;;24.50;13.00;;;2.80;99.90;;;;;;20825360;28;20345;-39
2024/03/21 03:55:04;;;;;;;22.70;11.68;;;3.00;99.90;;;;;;20793563;28;20041;-41
2024/03/21 04:05:06;;;;;;;18.88;10.98;;;3.00;99.90;;;;;;20823590;28;20049;-41
2024/03/21 04:15:11;;;;;;;24.38;12.93;;;3.10;99.90;;;;;;20781408;28;20038;-39
2024/03/21 04:25:16;;;;;;;26.88;15.02;;;3.00;99.90;;;;;;20789406;28;20037;-40
2024/03/21 04:35:18;;;;;;;23.73;11.65;;;3.00;99.90;;;;;;20823244;28;20046;-39
2024/03/21 04:45:22;;;;;;;18.70;10.10;;;2.80;99.90;;;;;;20817843;28;20100;-39
2024/03/21 04:55:24;;;;;;;24.15;11.40;;;2.60;99.90;;;;;;20821494;28;20101;-39
2024/03/21 05:05:26;;;;;;;25.75;13.55;;;2.70;99.90;;;;;;20819751;28;20029;-39
2024/03/21 05:15:27;;;;;;;26.15;13.40;;;2.80;99.90;;;;;;20820215;28;20041;-39
2024/03/21 05:25:29;;;;;;;24.05;13.18;;;2.90;99.90;;;;;;20831749;28;20030;-39
2024/03/21 05:35:31;;;;;;;26.35;14.07;;;3.30;99.90;;;;;;20846503;28;20052;-39
2024/03/21 05:45:33;;;;;;;22.88;12.43;;;3.30;99.90;;;;;;20908845;28;20504;-40
2024/03/21 05:55:35;;;;;;;21.83;12.55;;;3.40;99.90;;;;;;20887428;28;20094;-39
2024/03/21 06:05:37;;;;;;;22.13;12.32;;;3.60;99.90;;;;;;20854259;28;20036;-39
2024/03/21 06:15:38;;;;;;;25.77;12.55;;;3.50;99.90;;;;;;20858050;28;20472;-42
2024/03/21 06:25:43;;;;;;;24.02;12.80;;;3.50;99.90;;;;;;20857962;28;20178;-39
2024/03/21 06:35:45;;;;;;;25.95;12.27;;;3.70;99.90;;;;;;20845775;28;20037;-39
2024/03/21 06:45:59;;;;;;;28.88;15.75;;;4.00;99.90;;;;;;20822210;28;20437;-39
2024/03/21 06:56:02;;;;;;;28.75;17.20;;;4.50;99.90;;;;;;20805583;28;20033;-39
2024/03/21 07:06:04;;;;;;;37.13;21.55;;;4.80;99.90;;;;;;20824464;28;20092;-40
2024/03/21 07:16:07;;;;;;;33.03;19.92;;;5.70;99.90;;;;;;20823260;28;20041;-42
2024/03/21 07:26:09;;;;;;;28.20;18.05;;;6.80;99.90;;;;;;20816459;28;20029;-40
2024/03/21 07:36:10;;;;;;;33.28;19.42;;;7.60;99.90;;;;;;20800193;28;20042;-43
2024/03/21 07:46:18;;;;;;;36.65;23.60;;;8.40;99.90;;;;;;20821706;28;20032;-41
2024/03/21 07:56:20;;;;;;;32.25;19.75;;;9.40;99.90;;;;;;20802256;28;20038;-42
2024/03/21 08:06:21;;;;;;;30.13;19.52;;;10.40;99.90;;;;;;20822076;28;20370;-45
2024/03/21 08:16:23;;;;;;;24.23;17.45;;;11.20;99.90;;;;;;20824947;28;20042;-43
2024/03/21 08:26:25;;;;;;;30.55;19.42;;;11.60;99.90;;;;;;20821751;28;20040;-44
2024/03/21 08:36:27;;;;;;;26.55;17.55;;;12.40;99.90;;;;;;20819925;28;20064;-44
2024/03/21 08:46:28;;;;;;;22.52;16.50;;;13.00;99.90;;;;;;20815609;28;20034;-41
2024/03/21 08:56:31;;;;;;;23.02;16.98;;;13.90;99.90;;;;;;20819096;28;20033;-43
2024/03/21 09:06:34;;;;;;;22.20;15.20;;;13.90;99.90;;;;;;20808018;28;20408;-40
2024/03/21 09:16:35;;;;;;;21.80;15.65;;;14.20;99.90;;;;;;20814559;28;20025;-41
2024/03/21 09:26:39;;;;;;;21.42;15.40;;;14.40;99.90;;;;;;20817478;28;20056;-43
2024/03/21 09:36:46;;;;;;;22.10;16.50;;;14.50;99.90;;;;;;20816432;28;20045;-42
2024/03/21 09:46:51;;;;;;;22.35;15.80;;;14.50;99.90;;;;;;20823293;28;20033;-43
2024/03/21 09:56:54;;;;;;;25.02;16.27;;;15.30;99.90;;;;;;20830413;28;20034;-45
2024/03/21 10:06:55;;;;;;;25.20;17.23;;;16.10;99.90;;;;;;20812212;28;20559;-45
2024/03/21 10:16:57;;;;;;;24.08;16.95;;;16.30;99.90;;;;;;20832473;28;20037;-42
2024/03/21 10:26:59;;;;;;;21.27;15.88;;;16.60;99.90;;;;;;20832607;28;20034;-41
2024/03/21 10:37:01;;;;;;;19.45;14.75;;;16.70;99.90;;;;;;20809745;28;20493;-44
2024/03/21 10:47:10;;;;;;;24.27;17.63;;;15.60;99.90;;;;;;20811088;28;20033;-43
2024/03/21 10:57:25;;;;;;;23.77;16.92;;;15.30;99.90;;;;;;20818626;28;20033;-42
2024/03/21 11:07:31;;;;;;;25.45;18.83;;;14.80;99.90;;;;;;20827102;28;20091;-45
2024/03/21 11:17:32;;;;;;;29.38;20.75;;;14.50;99.90;;;;;;20826559;28;20064;-45
2024/03/21 11:27:34;;;;;;;24.88;17.92;;;14.20;99.90;;;;;;20807840;28;20079;-44
2024/03/21 11:37:36;;;;;;;24.80;18.60;;;14.10;99.90;;;;;;20826619;28;20378;-45
2024/03/21 11:47:38;;;;;;;26.05;20.00;;;14.30;99.90;;;;;;20823906;28;20033;-42
2024/03/21 11:57:40;;;;;;;29.83;20.77;;;14.60;99.90;;;;;;20805618;28;20052;-46
2024/03/21 12:07:41;;;;;;;27.70;20.02;;;14.90;99.90;;;;;;20819802;28;20377;-43
2024/03/21 12:17:43;;;;;;;31.10;21.15;;;15.50;99.90;;;;;;20821791;28;20033;-43
2024/03/21 12:27:45;;;;;;;34.17;23.20;;;16.20;99.90;;;;;;20803091;28;20042;-48
2024/03/21 12:37:50;;;;;;;33.67;25.52;;;17.40;99.90;;;;;;20801963;28;20049;-44
2024/03/21 12:47:52;;;;;;;36.38;25.13;;;17.60;99.90;;;;;;20799357;28;20034;-42
2024/03/21 12:57:54;;;;;;;31.92;23.05;;;17.30;99.90;;;;;;20818833;28;20030;-43
2024/03/21 13:07:56;;;;;;;38.38;27.90;;;17.30;99.90;;;;;;20817649;28;20033;-44
2024/03/21 13:17:57;;;;;;;39.38;27.77;;;16.70;99.90;;;;;;20822705;28;20091;-43
2024/03/21 13:27:59;;;;;;;41.65;29.52;;;16.80;99.90;;;;;;20835153;28;20033;-43
2024/03/21 13:38:02;;;;;;;45.15;30.05;;;17.00;99.90;;;;;;20829682;28;20041;-45
2024/03/21 13:48:04;;;;;;;51.50;33.70;;;16.30;99.90;;;;;;20814071;28;20045;-47
2024/03/21 13:58:06;;;;;;;47.90;33.13;;;15.30;99.90;;;;;;20814240;28;20032;-44
2024/03/21 14:08:08;;;;;;;47.33;33.13;;;14.30;99.90;;;;;;20831873;28;20061;-42
2024/03/21 14:18:09;;;;;;;53.10;35.05;;;13.80;99.90;;;;;;20832594;28;20187;-43
2024/03/21 14:28:11;;;;;;;50.58;33.95;;;13.50;99.90;;;;;;20828265;28;20034;-43
2024/03/21 14:38:13;;;;;;;51.35;34.25;;;13.00;99.90;;;;;;20853334;28;20424;-44
2024/03/21 14:48:15;;;;;;;53.00;36.25;;;12.80;99.90;;;;;;20859066;28;20033;-46
2024/03/21 14:58:16;;;;;;;47.33;32.33;;;13.00;99.90;;;;;;20904051;28;20484;-44
2024/03/21 15:08:21;;;;;;;53.58;36.85;;;13.10;99.90;;;;;;20893486;28;20075;-42
2024/03/21 15:18:23;;;;;;;51.22;34.67;;;13.10;99.90;;;;;;20862841;28;20388;-42
2024/03/21 15:28:26;;;;;;;53.63;33.97;;;12.70;99.90;;;;;;20851373;28;20029;-44
2024/03/21 15:38:28;;;;;;;48.97;33.58;;;12.60;99.90;;;;;;20861483;28;20041;-43
2024/03/21 15:48:30;;;;;;;50.28;31.40;;;12.40;99.90;;;;;;20859003;28;20033;-42
2024/03/21 15:58:32;;;;;;;55.67;33.58;;;12.00;99.90;;;;;;20887896;28;20079;-42
2024/03/21 16:08:34;;;;;;;53.97;33.97;;;11.30;99.90;;;;;;20848817;28;20385;-42
2024/03/21 16:18:36;;;;;;;58.35;36.92;;;10.50;99.90;;;;;;20889463;28;20037;-42
2024/03/21 16:28:38;;;;;;;61.35;36.25;;;10.20;99.90;;;;;;20852855;28;20029;-43
2024/03/21 16:38:42;;;;;;;54.83;34.08;;;9.90;99.90;;;;;;20836202;28;20042;-41
2024/03/21 16:48:46;;;;;;;60.88;35.03;;;9.60;99.90;;;;;;20865791;28;20037;-41
2024/03/21 16:58:48;;;;;;;59.08;36.00;;;9.00;99.90;;;;;;20924081;28;20033;-40
2024/03/21 17:08:50;;;;;;;69.45;36.90;;;8.30;99.90;;;;;;20930632;28;20032;-40
2024/03/21 17:18:51;;;;;;;67.65;36.88;;;7.70;99.90;;;;;;20895139;28;20060;-39
2024/03/21 17:28:53;;;;;;;55.20;31.25;;;7.20;99.90;;;;;;20927407;28;20041;-40
2024/03/21 17:38:55;;;;;;;42.05;24.50;;;7.20;99.90;;;;;;20892504;28;20154;-41
2024/03/21 17:48:58;;;;;;;21.35;13.45;;;7.00;99.90;;;;;;20825011;28;20107;-40
2024/03/21 17:58:59;;;;;;;16.25;9.65;;;6.80;99.90;;;;;;20847369;28;20477;-41
2024/03/21 18:09:01;;;;;;;12.48;7.68;;;6.60;99.90;;;;;;20794253;28;20053;-40
2024/03/21 18:19:03;;;;;;;7.72;4.97;;;6.60;99.90;;;;;;20734261;28;20116;-40
2024/03/21 18:29:04;;;;;;;9.68;5.13;;;6.60;99.90;;;;;;20831070;28;20025;-39
2024/03/21 18:39:06;;;;;;;14.27;6.30;;;6.50;99.90;;;;;;20904173;28;20036;-40
2024/03/21 18:49:08;;;;;;;9.65;5.82;;;6.40;99.90;;;;;;20913568;28;20033;-40
2024/03/21 18:59:10;;;;;;;8.57;5.03;;;6.20;99.90;;;;;;20912917;28;20033;-41
2024/03/21 19:09:12;;;;;;;7.65;4.40;;;6.10;99.90;;;;;;20912144;28;20091;-41
2024/03/21 19:19:14;;;;;;;7.32;4.35;;;6.00;99.90;;;;;;20911274;28;20044;-43
2024/03/21 19:29:15;;;;;;;13.13;6.35;;;6.00;99.90;;;;;;20910339;28;20033;-39
2024/03/21 19:39:17;;;;;;;10.95;6.00;;;6.00;99.90;;;;;;20818232;28;20046;-40
2024/03/21 19:49:19;;;;;;;10.13;6.43;;;5.90;99.90;;;;;;20794718;28;20444;-40
2024/03/21 19:59:21;;;;;;;12.30;7.13;;;5.80;99.90;;;;;;20744112;28;20113;-40
2024/03/21 20:09:23;;;;;;;13.13;7.28;;;6.10;99.90;;;;;;20839287;28;20103;-40
2024/03/21 20:19:26;;;;;;;12.38;7.38;;;6.00;99.90;;;;;;20824253;28;20397;-39
2024/03/21 20:29:27;;;;;;;12.00;6.57;;;5.80;99.90;;;;;;20823933;28;20033;-40
2024/03/21 20:39:36;;;;;;;8.23;4.28;;;5.60;99.90;;;;;;20898952;28;20068;-40
2024/03/21 20:49:37;;;;;;;7.28;4.00;;;5.70;99.90;;;;;;20848161;28;20044;-39
2024/03/21 20:59:40;;;;;;;5.78;3.30;;;5.90;99.90;;;;;;20804774;28;20025;-40
2024/03/21 21:09:42;;;;;;;5.40;3.05;;;5.80;99.90;;;;;;20822662;28;20103;-40
2024/03/21 21:19:44;;;;;;;5.80;2.90;;;5.80;99.90;;;;;;20824807;28;20079;-39
2024/03/21 21:29:50;;;;;;;6.05;2.90;;;5.60;99.90;;;;;;20823460;28;20037;-40
2024/03/21 21:39:52;;;;;;;5.53;2.63;;;5.70;99.90;;;;;;20854549;28;20045;-40
2024/03/21 21:49:54;;;;;;;7.43;3.55;;;5.90;99.90;;;;;;20803997;28;20083;-40
2024/03/21 21:59:55;;;;;;;4.38;2.78;;;5.90;99.90;;;;;;20834986;28;20030;-41
2024/03/21 22:09:57;;;;;;;5.75;2.72;;;6.30;99.90;;;;;;20810474;28;20034;-40
2024/03/21 22:19:59;;;;;;;3.67;1.70;;;6.30;99.90;;;;;;20833542;28;20091;-42
2024/03/21 22:30:01;;;;;;;3.55;1.50;;;5.90;99.90;;;;;;20832793;28;20484;-39
2024/03/21 22:40:06;;;;;;;2.53;0.80;;;5.70;99.90;;;;;;20912083;28;20458;-40
2024/03/21 22:50:09;;;;;;;3.47;0.75;;;6.10;99.90;;;;;;20907641;28;20111;-41
2024/03/21 23:00:31;;;;;;;0.95;0.38;;;6.60;99.90;;;;;;20913001;28;20037;-41
2024/03/21 23:10:34;;;;;;;2.03;0.70;;;6.50;99.90;;;;;;20912206;28;20052;-40
2024/03/21 23:20:39;;;;;;;0.93;0.40;;;6.10;99.90;;;;;;20911118;28;20036;-41
2024/03/21 23:30:41;;;;;;;0.50;0.30;;;6.50;99.90;;;;;;20837409;28;20100;-41
2024/03/21 23:40:43;;;;;;;0.90;0.30;;;6.50;99.90;;;;;;20797821;28;20382;-40
2024/03/21 23:50:46;;;;;;;1.23;0.30;;;6.20;99.90;;;;;;20825955;28;20068;-41
